Time;durP1;ratioP1;P1;durP2;ratioP2;P2;SDS_P1;SDS_P2;PMS_P1;PMS_P2;Temp;Humidity;BMP_temperature;BMP_pressure;BME280_temperature;BME280_humidity;BME280_pressure;Samples;Min_cycle;Max_cycle;Signal;HPM_P1;HPM_P2
2021/03/07 00:01:31;;;;;;;11.23;5.30;;;;;;;;;;10333878;28;20247;-76
2021/03/07 00:06:33;;;;;;;12.20;5.57;;;;;;;;;;10337027;28;20208;-77
2021/03/07 00:11:37;;;;;;;10.10;5.57;;;;;;;;;;10336347;28;20212;-76
2021/03/07 00:16:42;;;;;;;10.10;5.53;;;;;;;;;;10335223;28;20221;-76
2021/03/07 00:21:44;;;;;;;10.80;5.50;;;;;;;;;;10335453;28;20216;-77
2021/03/07 00:26:47;;;;;;;7.73;5.37;;;;;;;;;;10335746;28;20299;-76
2021/03/07 00:31:52;;;;;;;9.53;4.80;;;;;;;;;;10336986;28;21100;-76
2021/03/07 00:37:04;;;;;;;7.77;4.73;;;;;;;;;;10337580;28;20213;-76
2021/03/07 00:42:07;;;;;;;13.83;5.30;;;;;;;;;;10338386;28;20217;-77
2021/03/07 00:47:10;;;;;;;12.73;5.30;;;;;;;;;;10338531;28;20227;-76
2021/03/07 00:52:12;;;;;;;13.53;5.20;;;;;;;;;;10337761;28;20205;-77
2021/03/07 00:57:22;;;;;;;9.07;5.20;;;;;;;;;;10332817;28;20237;-77
2021/03/07 01:02:25;;;;;;;10.17;5.13;;;;;;;;;;10333803;28;20225;-76
2021/03/07 01:07:28;;;;;;;7.63;5.13;;;;;;;;;;10332888;28;20209;-76
2021/03/07 01:12:39;;;;;;;9.13;5.00;;;;;;;;;;10337628;28;20632;-76
2021/03/07 01:17:47;;;;;;;10.47;5.00;;;;;;;;;;10331590;28;20260;-76
2021/03/07 01:22:50;;;;;;;9.00;5.40;;;;;;;;;;10336900;28;20216;-76
2021/03/07 01:27:53;;;;;;;10.60;5.53;;;;;;;;;;10332143;28;20213;-76
2021/03/07 01:32:55;;;;;;;10.80;5.43;;;;;;;;;;10340817;28;20219;-76
2021/03/07 01:37:57;;;;;;;13.63;5.73;;;;;;;;;;10335575;28;20248;-76
2021/03/07 01:43:01;;;;;;;9.70;5.30;;;;;;;;;;10335872;28;20221;-76
2021/03/07 01:48:04;;;;;;;8.77;5.40;;;;;;;;;;10332793;28;20212;-77
2021/03/07 01:53:10;;;;;;;10.10;5.80;;;;;;;;;;10332930;28;20215;-77
2021/03/07 01:58:14;;;;;;;13.53;5.93;;;;;;;;;;10333023;28;20245;-77
2021/03/07 02:03:17;;;;;;;11.10;5.23;;;;;;;;;;10328872;28;20338;-76
2021/03/07 02:08:20;;;;;;;11.40;6.07;;;;;;;;;;10332374;28;20212;-76
2021/03/07 02:13:25;;;;;;;11.00;6.37;;;;;;;;;;10325473;28;20289;-76
2021/03/07 02:18:28;;;;;;;9.63;6.00;;;;;;;;;;10333790;28;20259;-76
2021/03/07 02:23:33;;;;;;;10.53;5.83;;;;;;;;;;10329971;28;20287;-77
2021/03/07 02:28:36;;;;;;;10.23;5.17;;;;;;;;;;10332197;28;20240;-76
2021/03/07 02:33:40;;;;;;;11.33;5.67;;;;;;;;;;10331600;28;20220;-77
2021/03/07 02:38:43;;;;;;;13.60;5.50;;;;;;;;;;10330180;28;20243;-77
2021/03/07 02:43:50;;;;;;;10.43;5.90;;;;;;;;;;10334061;28;20220;-77
2021/03/07 02:49:08;;;;;;;10.53;5.80;;;;;;;;;;10328829;28;20221;-77
2021/03/07 02:54:12;;;;;;;10.07;5.50;;;;;;;;;;10331980;28;20253;-77
2021/03/07 02:59:17;;;;;;;9.73;5.30;;;;;;;;;;10329914;28;20229;-77
2021/03/07 03:04:21;;;;;;;12.67;5.50;;;;;;;;;;10334672;28;20225;-77
2021/03/07 03:09:27;;;;;;;10.27;5.57;;;;;;;;;;10326102;28;20282;-77
2021/03/07 03:14:30;;;;;;;7.97;4.87;;;;;;;;;;10330576;28;20213;-77
2021/03/07 03:19:34;;;;;;;10.77;5.90;;;;;;;;;;10328760;28;20237;-76
2021/03/07 03:24:36;;;;;;;14.30;5.93;;;;;;;;;;10338118;28;20225;-77
2021/03/07 03:29:39;;;;;;;10.77;5.77;;;;;;;;;;10339309;28;20315;-77
2021/03/07 03:34:40;;;;;;;10.47;5.67;;;;;;;;;;10336078;28;20212;-78
2021/03/07 03:39:44;;;;;;;10.03;5.33;;;;;;;;;;10339478;28;20631;-77
2021/03/07 03:44:47;;;;;;;10.17;5.47;;;;;;;;;;10339614;28;20890;-78
2021/03/07 03:49:53;;;;;;;12.03;6.00;;;;;;;;;;10336833;28;20220;-77
2021/03/07 03:54:57;;;;;;;9.37;5.67;;;;;;;;;;10334269;28;20236;-78
2021/03/07 04:00:02;;;;;;;12.63;6.07;;;;;;;;;;10336986;28;20263;-77
2021/03/07 04:05:07;;;;;;;11.30;6.10;;;;;;;;;;10335192;28;20233;-77
2021/03/07 04:10:10;;;;;;;10.30;5.80;;;;;;;;;;10343460;28;20308;-77
2021/03/07 04:15:15;;;;;;;11.93;5.90;;;;;;;;;;10340858;28;20568;-77
2021/03/07 04:20:19;;;;;;;11.63;5.97;;;;;;;;;;10337427;28;20726;-77
2021/03/07 04:25:21;;;;;;;14.37;6.57;;;;;;;;;;10332300;28;20221;-78
2021/03/07 04:30:24;;;;;;;9.43;5.87;;;;;;;;;;10338758;28;20314;-77
2021/03/07 04:35:26;;;;;;;12.33;6.57;;;;;;;;;;10335679;28;20232;-78
2021/03/07 04:40:29;;;;;;;13.33;6.47;;;;;;;;;;10335531;28;20299;-77
2021/03/07 04:45:32;;;;;;;10.97;6.43;;;;;;;;;;10334088;28;20682;-77
2021/03/07 04:50:37;;;;;;;11.33;6.53;;;;;;;;;;10338376;28;20229;-77
2021/03/07 04:55:39;;;;;;;12.77;6.30;;;;;;;;;;10332778;28;20219;-78
2021/03/07 05:00:42;;;;;;;11.33;6.47;;;;;;;;;;10334966;28;20241;-77
2021/03/07 05:05:45;;;;;;;9.90;6.50;;;;;;;;;;10332479;28;20231;-77
2021/03/07 05:10:48;;;;;;;12.23;5.97;;;;;;;;;;10329486;28;20218;-78
2021/03/07 05:15:51;;;;;;;12.27;6.20;;;;;;;;;;10336305;28;20205;-77
2021/03/07 05:20:54;;;;;;;12.23;6.30;;;;;;;;;;10330341;28;20247;-78
2021/03/07 05:25:57;;;;;;;12.47;6.23;;;;;;;;;;10335376;28;20213;-78
2021/03/07 05:30:59;;;;;;;10.27;5.80;;;;;;;;;;10331204;28;20674;-77
2021/03/07 05:36:01;;;;;;;9.87;5.97;;;;;;;;;;10335210;28;20362;-77
2021/03/07 05:41:03;;;;;;;12.87;6.30;;;;;;;;;;10330789;28;20244;-77
2021/03/07 05:46:06;;;;;;;8.60;5.63;;;;;;;;;;10332008;28;20227;-77
2021/03/07 05:51:11;;;;;;;9.20;6.47;;;;;;;;;;10333362;28;20718;-77
2021/03/07 05:56:13;;;;;;;10.83;5.93;;;;;;;;;;10335608;28;20216;-77
2021/03/07 06:01:16;;;;;;;10.27;5.83;;;;;;;;;;10330445;28;20243;-77
2021/03/07 06:06:18;;;;;;;13.50;6.53;;;;;;;;;;10333934;28;20221;-77
2021/03/07 06:11:30;;;;;;;13.43;6.30;;;;;;;;;;10330850;28;20221;-77
2021/03/07 06:16:33;;;;;;;12.47;6.17;;;;;;;;;;10334696;28;20209;-78
2021/03/07 06:21:35;;;;;;;11.17;6.50;;;;;;;;;;10328527;28;20760;-77
2021/03/07 06:26:37;;;;;;;10.67;6.30;;;;;;;;;;10338980;28;20217;-77
2021/03/07 06:31:40;;;;;;;11.70;6.20;;;;;;;;;;10332065;28;20332;-77
2021/03/07 06:36:43;;;;;;;13.20;6.47;;;;;;;;;;10329995;28;20636;-77
2021/03/07 06:41:45;;;;;;;9.97;6.30;;;;;;;;;;10334221;28;20228;-77
2021/03/07 06:46:48;;;;;;;12.00;6.20;;;;;;;;;;10328127;28;20240;-78
2021/03/07 06:51:50;;;;;;;10.40;6.43;;;;;;;;;;10331861;28;20275;-77
2021/03/07 06:56:53;;;;;;;11.70;6.40;;;;;;;;;;10325279;28;20228;-78
2021/03/07 07:01:57;;;;;;;13.60;7.33;;;;;;;;;;10331180;28;20236;-77
2021/03/07 07:07:04;;;;;;;14.30;7.33;;;;;;;;;;10335428;28;20215;-77
2021/03/07 07:12:09;;;;;;;11.83;7.23;;;;;;;;;;10341046;28;20344;-77
2021/03/07 07:17:17;;;;;;;15.93;8.60;;;;;;;;;;10328626;28;20209;-77
2021/03/07 07:22:20;;;;;;;13.87;8.57;;;;;;;;;;10333592;28;20243;-78
2021/03/07 07:27:22;;;;;;;13.40;7.73;;;;;;;;;;10333596;28;20209;-77
2021/03/07 07:32:31;;;;;;;15.40;8.30;;;;;;;;;;10338435;28;20224;-77
2021/03/07 07:37:35;;;;;;;14.40;7.90;;;;;;;;;;10331709;28;20244;-77
2021/03/07 07:42:38;;;;;;;12.23;6.77;;;;;;;;;;10329879;28;20229;-77
2021/03/07 07:47:42;;;;;;;11.73;7.10;;;;;;;;;;10331024;28;20915;-77
2021/03/07 07:52:44;;;;;;;11.97;7.17;;;;;;;;;;10331426;28;20213;-77
2021/03/07 07:57:51;;;;;;;12.03;6.83;;;;;;;;;;10331102;28;20217;-77
2021/03/07 08:02:54;;;;;;;11.33;7.50;;;;;;;;;;10328756;28;20248;-77
2021/03/07 08:07:58;;;;;;;14.30;7.23;;;;;;;;;;10331750;28;20225;-77
2021/03/07 08:13:00;;;;;;;12.60;7.60;;;;;;;;;;10332551;28;20233;-77
2021/03/07 08:18:04;;;;;;;11.63;7.87;;;;;;;;;;10336039;28;20717;-77
2021/03/07 08:23:06;;;;;;;13.50;8.20;;;;;;;;;;10332091;28;20205;-77
2021/03/07 08:28:23;;;;;;;11.90;8.13;;;;;;;;;;10336946;28;20209;-77
2021/03/07 08:33:26;;;;;;;13.13;7.97;;;;;;;;;;10332370;28;20651;-77
2021/03/07 08:38:29;;;;;;;14.00;9.13;;;;;;;;;;10336312;28;20241;-77
2021/03/07 08:43:51;;;;;;;16.83;9.50;;;;;;;;;;10337025;28;20208;-76
2021/03/07 08:48:55;;;;;;;15.47;9.70;;;;;;;;;;10335074;28;20217;-76
2021/03/07 08:54:01;;;;;;;16.67;9.73;;;;;;;;;;10337132;28;20255;-76
2021/03/07 08:59:03;;;;;;;17.70;9.90;;;;;;;;;;10321822;28;20233;-77
2021/03/07 09:04:24;;;;;;;14.80;10.20;;;;;;;;;;10336074;28;20233;-77
2021/03/07 09:09:27;;;;;;;15.97;10.40;;;;;;;;;;10325220;28;20307;-77
2021/03/07 09:14:39;;;;;;;17.03;11.07;;;;;;;;;;10338411;28;20697;-78
2021/03/07 09:19:43;;;;;;;20.90;12.00;;;;;;;;;;10327622;28;20672;-77
2021/03/07 09:25:03;;;;;;;18.83;11.30;;;;;;;;;;10340190;28;20650;-78
2021/03/07 09:30:09;;;;;;;19.63;12.33;;;;;;;;;;10337781;28;20201;-78
2021/03/07 09:35:28;;;;;;;17.67;10.90;;;;;;;;;;10339376;28;20330;-79
2021/03/07 09:40:31;;;;;;;14.77;9.13;;;;;;;;;;10336960;28;20783;-78
2021/03/07 09:45:33;;;;;;;13.47;9.60;;;;;;;;;;10345131;28;20752;-77
2021/03/07 09:50:51;;;;;;;11.53;8.73;;;;;;;;;;10338398;28;20806;-77
2021/03/07 09:55:58;;;;;;;12.03;8.33;;;;;;;;;;10343348;28;20327;-79
2021/03/07 16:15:29;;;;;;;24.93;15.23;;;;;;;;;;10402577;28;20207;-81
2021/03/07 16:20:31;;;;;;;22.67;14.63;;;;;;;;;;10414232;28;20724;-82
2021/03/07 16:25:42;;;;;;;25.70;14.93;;;;;;;;;;10408097;28;20321;-82
2021/03/07 16:30:45;;;;;;;26.60;15.20;;;;;;;;;;10409951;28;20224;-82
2021/03/07 16:35:47;;;;;;;27.83;15.47;;;;;;;;;;10414028;28;20222;-82
2021/03/07 16:40:49;;;;;;;26.57;15.87;;;;;;;;;;10406217;28;20239;-81
2021/03/07 16:45:51;;;;;;;26.03;15.70;;;;;;;;;;10410369;28;20231;-83
2021/03/07 16:50:54;;;;;;;25.33;15.00;;;;;;;;;;10413239;28;20918;-83
2021/03/07 16:56:03;;;;;;;26.33;16.27;;;;;;;;;;10407516;28;20579;-81
2021/03/07 17:01:07;;;;;;;27.67;15.83;;;;;;;;;;10409122;28;20242;-81
2021/03/07 17:06:09;;;;;;;26.93;16.13;;;;;;;;;;10410040;28;22108;-81
2021/03/07 17:11:11;;;;;;;26.20;15.60;;;;;;;;;;10406195;28;20216;-82
2021/03/07 17:16:15;;;;;;;26.23;15.53;;;;;;;;;;10411226;28;20215;-83
2021/03/07 17:21:17;;;;;;;28.30;16.30;;;;;;;;;;10409500;28;20239;-81
2021/03/07 17:26:25;;;;;;;28.00;16.93;;;;;;;;;;10421092;28;20633;-83
2021/03/07 17:31:28;;;;;;;27.70;16.20;;;;;;;;;;10409814;28;20216;-84
2021/03/07 17:36:30;;;;;;;29.77;16.80;;;;;;;;;;10417628;28;20211;-82
2021/03/07 17:41:32;;;;;;;30.33;16.73;;;;;;;;;;10402952;28;20725;-83
2021/03/07 17:46:35;;;;;;;32.33;17.43;;;;;;;;;;10407115;28;20711;-82
2021/03/07 17:51:38;;;;;;;32.63;17.93;;;;;;;;;;10412610;28;20278;-91
2021/03/07 17:56:50;;;;;;;35.03;19.53;;;;;;;;;;10413155;28;20238;-84
2021/03/07 18:01:53;;;;;;;34.00;19.43;;;;;;;;;;10412412;28;20338;-82
2021/03/07 18:06:55;;;;;;;38.10;19.90;;;;;;;;;;10416932;28;20614;-82
2021/03/07 18:11:57;;;;;;;40.53;20.97;;;;;;;;;;10406243;28;20334;-82
2021/03/07 18:16:59;;;;;;;36.87;20.30;;;;;;;;;;10413951;28;20520;-82
2021/03/07 18:22:02;;;;;;;37.60;21.37;;;;;;;;;;10405354;28;20262;-82
2021/03/07 18:27:10;;;;;;;38.37;22.30;;;;;;;;;;10404941;28;20219;-82
2021/03/07 18:32:13;;;;;;;36.93;21.77;;;;;;;;;;10410279;28;20302;-82
2021/03/07 18:37:15;;;;;;;41.87;23.70;;;;;;;;;;10407948;28;20208;-81
2021/03/07 18:42:20;;;;;;;38.70;22.70;;;;;;;;;;10412614;28;20254;-79
2021/03/07 18:47:23;;;;;;;41.33;23.40;;;;;;;;;;10402839;28;20587;-84
2021/03/07 18:52:25;;;;;;;42.77;24.30;;;;;;;;;;10406356;28;20604;-86
2021/03/07 18:57:34;;;;;;;51.63;26.67;;;;;;;;;;10410723;28;20227;-85
2021/03/07 19:02:37;;;;;;;45.17;24.77;;;;;;;;;;10409223;28;20685;-86
2021/03/07 19:07:57;;;;;;;44.17;23.77;;;;;;;;;;10409707;28;20308;-86
2021/03/07 19:12:59;;;;;;;43.03;23.67;;;;;;;;;;10407736;28;20215;-85
2021/03/07 19:18:02;;;;;;;38.83;23.20;;;;;;;;;;10415599;28;20218;-85
2021/03/07 19:23:04;;;;;;;40.93;22.93;;;;;;;;;;10411504;28;20239;-85
2021/03/07 19:28:07;;;;;;;43.53;24.13;;;;;;;;;;10414395;28;20385;-84
2021/03/07 19:33:10;;;;;;;42.00;24.60;;;;;;;;;;10406510;28;20223;-86
2021/03/07 19:38:13;;;;;;;44.77;24.30;;;;;;;;;;10412190;28;20231;-85
2021/03/07 19:43:14;;;;;;;42.57;25.50;;;;;;;;;;10407700;28;20227;-84
2021/03/07 19:48:17;;;;;;;44.33;24.90;;;;;;;;;;10410721;28;20219;-86
2021/03/07 19:53:22;;;;;;;44.20;25.60;;;;;;;;;;10404465;28;20399;-86
2021/03/07 19:58:25;;;;;;;41.73;24.50;;;;;;;;;;10411531;28;20239;-86
2021/03/07 20:03:27;;;;;;;41.53;23.87;;;;;;;;;;10407017;28;20262;-85
2021/03/07 20:08:30;;;;;;;47.43;26.77;;;;;;;;;;10415817;28;20219;-85
2021/03/07 20:13:33;;;;;;;46.37;26.43;;;;;;;;;;10411227;28;20238;-85
2021/03/07 20:18:36;;;;;;;50.70;28.33;;;;;;;;;;10414606;28;20230;-84
2021/03/07 20:23:38;;;;;;;48.37;26.37;;;;;;;;;;10416200;28;20614;-83
2021/03/07 20:28:45;;;;;;;44.50;25.37;;;;;;;;;;10401842;28;20671;-83
2021/03/07 20:33:48;;;;;;;46.57;27.07;;;;;;;;;;10418521;28;20214;-83
2021/03/07 20:38:50;;;;;;;47.87;26.60;;;;;;;;;;10421710;28;20216;-83
2021/03/07 20:43:52;;;;;;;46.77;26.00;;;;;;;;;;10426100;28;20211;-84
2021/03/07 20:48:55;;;;;;;47.90;26.40;;;;;;;;;;10421265;28;20234;-83
2021/03/07 20:53:58;;;;;;;47.80;26.67;;;;;;;;;;10421220;28;20246;-84
2021/03/07 20:59:11;;;;;;;47.40;27.27;;;;;;;;;;10419266;28;20655;-82
2021/03/07 21:04:14;;;;;;;47.70;27.27;;;;;;;;;;10423745;28;20303;-81
2021/03/07 21:09:16;;;;;;;52.53;28.77;;;;;;;;;;10419818;28;21702;-83
2021/03/07 21:14:17;;;;;;;52.93;27.47;;;;;;;;;;10420663;28;20215;-82
2021/03/07 21:19:20;;;;;;;49.17;28.20;;;;;;;;;;10420904;28;20226;-83
2021/03/07 21:24:22;;;;;;;52.40;28.03;;;;;;;;;;10420605;28;20220;-82
2021/03/07 21:29:32;;;;;;;47.50;27.10;;;;;;;;;;10419317;28;20277;-83
2021/03/07 21:34:35;;;;;;;50.13;27.93;;;;;;;;;;10415875;28;20223;-82
2021/03/07 21:39:37;;;;;;;52.13;28.60;;;;;;;;;;10421648;28;20246;-82
2021/03/07 21:44:39;;;;;;;50.37;27.10;;;;;;;;;;10413405;28;20211;-82
2021/03/07 21:49:42;;;;;;;51.20;27.93;;;;;;;;;;10419284;28;20211;-82
2021/03/07 21:54:44;;;;;;;47.20;26.60;;;;;;;;;;10421259;28;20247;-81
2021/03/07 21:59:52;;;;;;;48.73;26.80;;;;;;;;;;10416092;28;20239;-82
2021/03/07 22:04:56;;;;;;;49.33;26.27;;;;;;;;;;10415363;28;20767;-82
2021/03/07 22:09:57;;;;;;;47.50;26.53;;;;;;;;;;10416770;28;20223;-82
2021/03/07 22:14:59;;;;;;;48.27;27.13;;;;;;;;;;10416355;28;20999;-83
2021/03/07 22:20:03;;;;;;;50.80;27.83;;;;;;;;;;10414756;28;20746;-81
2021/03/07 22:25:05;;;;;;;47.07;25.47;;;;;;;;;;10413186;28;20227;-82
2021/03/07 22:30:22;;;;;;;48.27;27.07;;;;;;;;;;10408874;28;20973;-82
2021/03/07 22:35:25;;;;;;;50.30;25.80;;;;;;;;;;10423079;28;20216;-82
2021/03/07 22:40:27;;;;;;;46.53;25.53;;;;;;;;;;10416408;28;20603;-81
2021/03/07 22:45:29;;;;;;;44.17;24.67;;;;;;;;;;10411597;28;20604;-83
2021/03/07 22:50:31;;;;;;;45.63;24.23;;;;;;;;;;10416670;28;20699;-81
2021/03/07 22:55:33;;;;;;;44.90;23.17;;;;;;;;;;10417702;28;20233;-82
2021/03/07 23:00:38;;;;;;;45.20;25.50;;;;;;;;;;10412575;28;20238;-82
2021/03/07 23:05:41;;;;;;;51.03;26.43;;;;;;;;;;10411527;28;20216;-83
2021/03/07 23:10:43;;;;;;;46.60;25.70;;;;;;;;;;10414384;28;20253;-82
2021/03/07 23:15:45;;;;;;;46.93;25.00;;;;;;;;;;10409677;28;20226;-82
2021/03/07 23:20:48;;;;;;;52.33;25.77;;;;;;;;;;10415569;28;20237;-82
2021/03/07 23:25:50;;;;;;;51.53;25.83;;;;;;;;;;10407374;28;20285;-82
2021/03/07 23:31:04;;;;;;;47.13;26.07;;;;;;;;;;10413110;28;20232;-82
2021/03/07 23:36:07;;;;;;;45.87;24.87;;;;;;;;;;10408748;28;20239;-82
2021/03/07 23:41:09;;;;;;;45.83;26.03;;;;;;;;;;10420974;28;20632;-82
2021/03/07 23:46:11;;;;;;;45.43;25.30;;;;;;;;;;10426279;28;20216;-82
2021/03/07 23:51:14;;;;;;;47.27;26.63;;;;;;;;;;10418593;28;20679;-82
2021/03/07 23:56:16;;;;;;;47.10;25.67;;;;;;;;;;10421761;28;20242;-80
